sensor_id;sensor_type;location;lat;lon;timestamp;P1;durP1;ratioP1;P2;durP2;ratioP2
71174;SDS011;58876;51.994;4.472;2024-03-25T00:01:31;10.39;;;6.65;;
71174;SDS011;58876;51.994;4.472;2024-03-25T00:03:56;10.32;;;6.45;;
71174;SDS011;58876;51.994;4.472;2024-03-25T00:06:22;9.85;;;6.17;;
71174;SDS011;58876;51.994;4.472;2024-03-25T00:08:47;10.91;;;6.84;;
71174;SDS011;58876;51.994;4.472;2024-03-25T00:11:13;9.59;;;6.01;;
71174;SDS011;58876;51.994;4.472;2024-03-25T00:13:38;10.28;;;6.54;;
71174;SDS011;58876;51.994;4.472;2024-03-25T00:16:04;9.76;;;6.37;;
71174;SDS011;58876;51.994;4.472;2024-03-25T00:18:30;9.29;;;5.98;;
71174;SDS011;58876;51.994;4.472;2024-03-25T00:20:56;9.63;;;6.12;;
71174;SDS011;58876;51.994;4.472;2024-03-25T00:23:22;8.96;;;5.78;;
71174;SDS011;58876;51.994;4.472;2024-03-25T00:25:47;9.13;;;5.77;;
71174;SDS011;58876;51.994;4.472;2024-03-25T00:28:13;9.66;;;6.16;;
71174;SDS011;58876;51.994;4.472;2024-03-25T00:30:38;8.95;;;5.76;;
71174;SDS011;58876;51.994;4.472;2024-03-25T00:33:04;10.09;;;6.36;;
71174;SDS011;58876;51.994;4.472;2024-03-25T00:35:31;10.60;;;6.64;;
71174;SDS011;58876;51.994;4.472;2024-03-25T00:37:57;11.09;;;6.92;;
71174;SDS011;58876;51.994;4.472;2024-03-25T00:40:23;10.47;;;6.72;;
71174;SDS011;58876;51.994;4.472;2024-03-25T00:42:49;9.61;;;6.15;;
71174;SDS011;58876;51.994;4.472;2024-03-25T00:45:14;10.74;;;6.76;;
71174;SDS011;58876;51.994;4.472;2024-03-25T00:47:40;9.93;;;6.27;;
71174;SDS011;58876;51.994;4.472;2024-03-25T00:50:07;9.69;;;6.03;;
71174;SDS011;58876;51.994;4.472;2024-03-25T00:52:34;9.98;;;6.19;;
71174;SDS011;58876;51.994;4.472;2024-03-25T00:55:00;9.37;;;5.88;;
71174;SDS011;58876;51.994;4.472;2024-03-25T00:57:25;9.06;;;5.87;;
71174;SDS011;58876;51.994;4.472;2024-03-25T00:59:51;9.31;;;6.01;;
71174;SDS011;58876;51.994;4.472;2024-03-25T01:02:16;9.08;;;5.88;;
71174;SDS011;58876;51.994;4.472;2024-03-25T01:04:42;9.07;;;5.85;;
71174;SDS011;58876;51.994;4.472;2024-03-25T01:13:52;8.56;;;5.54;;
71174;SDS011;58876;51.994;4.472;2024-03-25T01:16:17;9.21;;;5.86;;
71174;SDS011;58876;51.994;4.472;2024-03-25T01:18:43;10.54;;;6.70;;
71174;SDS011;58876;51.994;4.472;2024-03-25T01:21:08;9.56;;;6.14;;
71174;SDS011;58876;51.994;4.472;2024-03-25T01:23:34;8.64;;;5.63;;
71174;SDS011;58876;51.994;4.472;2024-03-25T01:25:59;9.51;;;6.20;;
71174;SDS011;58876;51.994;4.472;2024-03-25T01:28:25;8.86;;;5.78;;
71174;SDS011;58876;51.994;4.472;2024-03-25T01:30:51;8.84;;;5.80;;
71174;SDS011;58876;51.994;4.472;2024-03-25T01:33:17;9.27;;;6.09;;
71174;SDS011;58876;51.994;4.472;2024-03-25T01:35:42;9.51;;;6.20;;
71174;SDS011;58876;51.994;4.472;2024-03-25T01:38:08;9.69;;;6.47;;
71174;SDS011;58876;51.994;4.472;2024-03-25T01:40:33;9.29;;;6.29;;
71174;SDS011;58876;51.994;4.472;2024-03-25T01:43:00;9.14;;;6.09;;
71174;SDS011;58876;51.994;4.472;2024-03-25T01:45:33;9.31;;;6.21;;
71174;SDS011;58876;51.994;4.472;2024-03-25T01:48:04;9.07;;;5.99;;
71174;SDS011;58876;51.994;4.472;2024-03-25T01:50:33;9.10;;;6.00;;
71174;SDS011;58876;51.994;4.472;2024-03-25T01:53:02;8.88;;;5.86;;
71174;SDS011;58876;51.994;4.472;2024-03-25T01:55:28;9.70;;;6.33;;
71174;SDS011;58876;51.994;4.472;2024-03-25T01:57:57;9.08;;;6.00;;
71174;SDS011;58876;51.994;4.472;2024-03-25T02:00:24;9.93;;;6.60;;
71174;SDS011;58876;51.994;4.472;2024-03-25T02:02:52;9.42;;;6.36;;
71174;SDS011;58876;51.994;4.472;2024-03-25T02:05:18;8.18;;;5.70;;
71174;SDS011;58876;51.994;4.472;2024-03-25T02:07:44;8.55;;;5.86;;
71174;SDS011;58876;51.994;4.472;2024-03-25T02:10:10;9.05;;;6.03;;
71174;SDS011;58876;51.994;4.472;2024-03-25T02:12:42;10.22;;;6.89;;
71174;SDS011;58876;51.994;4.472;2024-03-25T02:15:09;8.45;;;5.82;;
71174;SDS011;58876;51.994;4.472;2024-03-25T02:17:35;9.25;;;6.39;;
71174;SDS011;58876;51.994;4.472;2024-03-25T02:20:02;8.39;;;5.90;;
71174;SDS011;58876;51.994;4.472;2024-03-25T02:22:30;9.04;;;6.42;;
71174;SDS011;58876;51.994;4.472;2024-03-25T02:24:57;8.58;;;6.07;;
71174;SDS011;58876;51.994;4.472;2024-03-25T02:27:24;8.33;;;5.92;;
71174;SDS011;58876;51.994;4.472;2024-03-25T02:29:50;9.07;;;6.34;;
71174;SDS011;58876;51.994;4.472;2024-03-25T02:32:16;8.55;;;6.07;;
71174;SDS011;58876;51.994;4.472;2024-03-25T02:34:51;7.57;;;5.54;;
71174;SDS011;58876;51.994;4.472;2024-03-25T02:37:18;7.35;;;5.54;;
71174;SDS011;58876;51.994;4.472;2024-03-25T02:39:44;8.23;;;6.23;;
71174;SDS011;58876;51.994;4.472;2024-03-25T02:42:10;7.61;;;5.82;;
71174;SDS011;58876;51.994;4.472;2024-03-25T02:44:35;7.19;;;5.52;;
71174;SDS011;58876;51.994;4.472;2024-03-25T02:47:02;7.17;;;5.45;;
71174;SDS011;58876;51.994;4.472;2024-03-25T02:49:29;6.73;;;5.26;;
71174;SDS011;58876;51.994;4.472;2024-03-25T02:51:54;7.08;;;5.42;;
71174;SDS011;58876;51.994;4.472;2024-03-25T02:54:20;7.04;;;5.39;;
71174;SDS011;58876;51.994;4.472;2024-03-25T02:56:46;7.34;;;5.76;;
71174;SDS011;58876;51.994;4.472;2024-03-25T02:59:12;6.45;;;5.14;;
71174;SDS011;58876;51.994;4.472;2024-03-25T03:01:37;6.89;;;5.38;;
71174;SDS011;58876;51.994;4.472;2024-03-25T03:04:02;7.18;;;5.49;;
71174;SDS011;58876;51.994;4.472;2024-03-25T03:06:28;7.18;;;5.45;;
71174;SDS011;58876;51.994;4.472;2024-03-25T03:08:53;6.79;;;5.32;;
71174;SDS011;58876;51.994;4.472;2024-03-25T03:11:19;6.49;;;5.19;;
71174;SDS011;58876;51.994;4.472;2024-03-25T03:13:45;6.34;;;5.08;;
71174;SDS011;58876;51.994;4.472;2024-03-25T03:16:11;6.24;;;5.10;;
71174;SDS011;58876;51.994;4.472;2024-03-25T03:18:37;6.04;;;4.99;;
71174;SDS011;58876;51.994;4.472;2024-03-25T03:21:02;6.33;;;5.19;;
71174;SDS011;58876;51.994;4.472;2024-03-25T03:23:28;5.55;;;4.74;;
71174;SDS011;58876;51.994;4.472;2024-03-25T03:25:53;6.81;;;5.67;;
71174;SDS011;58876;51.994;4.472;2024-03-25T03:28:19;6.50;;;5.30;;
71174;SDS011;58876;51.994;4.472;2024-03-25T03:30:44;7.31;;;5.83;;
71174;SDS011;58876;51.994;4.472;2024-03-25T03:33:09;7.03;;;5.52;;
71174;SDS011;58876;51.994;4.472;2024-03-25T03:35:35;6.89;;;5.39;;
71174;SDS011;58876;51.994;4.472;2024-03-25T03:38:01;6.61;;;5.19;;
71174;SDS011;58876;51.994;4.472;2024-03-25T03:40:28;7.35;;;5.59;;
71174;SDS011;58876;51.994;4.472;2024-03-25T03:42:54;7.33;;;5.73;;
71174;SDS011;58876;51.994;4.472;2024-03-25T03:45:21;7.17;;;5.68;;
71174;SDS011;58876;51.994;4.472;2024-03-25T03:47:48;7.45;;;5.91;;
71174;SDS011;58876;51.994;4.472;2024-03-25T03:50:14;6.45;;;5.35;;
71174;SDS011;58876;51.994;4.472;2024-03-25T03:52:40;6.56;;;5.27;;
71174;SDS011;58876;51.994;4.472;2024-03-25T03:55:05;6.28;;;5.11;;
71174;SDS011;58876;51.994;4.472;2024-03-25T03:57:31;6.60;;;5.21;;
71174;SDS011;58876;51.994;4.472;2024-03-25T03:59:57;7.27;;;5.50;;
71174;SDS011;58876;51.994;4.472;2024-03-25T04:02:23;7.81;;;5.79;;
71174;SDS011;58876;51.994;4.472;2024-03-25T04:04:48;6.98;;;5.42;;
71174;SDS011;58876;51.994;4.472;2024-03-25T04:07:14;6.83;;;5.37;;
71174;SDS011;58876;51.994;4.472;2024-03-25T04:09:40;6.53;;;5.12;;
71174;SDS011;58876;51.994;4.472;2024-03-25T04:12:05;6.49;;;5.21;;
71174;SDS011;58876;51.994;4.472;2024-03-25T04:14:32;6.36;;;5.27;;
71174;SDS011;58876;51.994;4.472;2024-03-25T04:16:58;5.71;;;4.84;;
71174;SDS011;58876;51.994;4.472;2024-03-25T04:19:24;5.80;;;4.85;;
71174;SDS011;58876;51.994;4.472;2024-03-25T04:21:50;5.72;;;4.82;;
71174;SDS011;58876;51.994;4.472;2024-03-25T04:24:16;5.88;;;4.91;;
71174;SDS011;58876;51.994;4.472;2024-03-25T04:26:44;7.10;;;5.72;;
71174;SDS011;58876;51.994;4.472;2024-03-25T04:29:09;6.12;;;5.02;;
71174;SDS011;58876;51.994;4.472;2024-03-25T04:31:35;5.80;;;4.87;;
71174;SDS011;58876;51.994;4.472;2024-03-25T04:34:02;5.95;;;5.01;;
71174;SDS011;58876;51.994;4.472;2024-03-25T04:36:29;5.65;;;4.72;;
71174;SDS011;58876;51.994;4.472;2024-03-25T04:38:55;5.39;;;4.59;;
71174;SDS011;58876;51.994;4.472;2024-03-25T04:41:20;6.00;;;5.05;;
71174;SDS011;58876;51.994;4.472;2024-03-25T04:43:46;5.21;;;4.47;;
71174;SDS011;58876;51.994;4.472;2024-03-25T04:46:11;5.22;;;4.48;;
71174;SDS011;58876;51.994;4.472;2024-03-25T04:48:37;6.02;;;5.07;;
71174;SDS011;58876;51.994;4.472;2024-03-25T04:51:02;5.88;;;4.95;;
71174;SDS011;58876;51.994;4.472;2024-03-25T04:53:28;5.94;;;4.93;;
71174;SDS011;58876;51.994;4.472;2024-03-25T04:55:54;5.30;;;4.44;;
71174;SDS011;58876;51.994;4.472;2024-03-25T04:58:19;5.94;;;4.94;;
71174;SDS011;58876;51.994;4.472;2024-03-25T05:00:45;5.85;;;4.93;;
71174;SDS011;58876;51.994;4.472;2024-03-25T05:03:11;5.73;;;4.90;;
71174;SDS011;58876;51.994;4.472;2024-03-25T05:05:36;5.87;;;5.04;;
71174;SDS011;58876;51.994;4.472;2024-03-25T05:08:01;6.21;;;5.23;;
71174;SDS011;58876;51.994;4.472;2024-03-25T05:10:28;6.30;;;5.28;;
71174;SDS011;58876;51.994;4.472;2024-03-25T05:12:54;6.58;;;5.46;;
71174;SDS011;58876;51.994;4.472;2024-03-25T05:15:20;6.48;;;5.53;;
71174;SDS011;58876;51.994;4.472;2024-03-25T05:17:46;5.52;;;4.81;;
71174;SDS011;58876;51.994;4.472;2024-03-25T05:20:12;6.17;;;5.23;;
71174;SDS011;58876;51.994;4.472;2024-03-25T05:22:37;6.15;;;5.15;;
71174;SDS011;58876;51.994;4.472;2024-03-25T05:25:03;6.89;;;5.76;;
71174;SDS011;58876;51.994;4.472;2024-03-25T05:27:28;7.03;;;5.87;;
71174;SDS011;58876;51.994;4.472;2024-03-25T05:29:54;6.13;;;5.23;;
71174;SDS011;58876;51.994;4.472;2024-03-25T05:32:19;6.19;;;5.40;;
71174;SDS011;58876;51.994;4.472;2024-03-25T05:34:47;6.23;;;5.39;;
71174;SDS011;58876;51.994;4.472;2024-03-25T05:37:13;5.70;;;5.07;;
71174;SDS011;58876;51.994;4.472;2024-03-25T05:39:40;5.59;;;5.07;;
71174;SDS011;58876;51.994;4.472;2024-03-25T05:42:05;6.56;;;5.67;;
71174;SDS011;58876;51.994;4.472;2024-03-25T05:44:31;6.19;;;5.31;;
71174;SDS011;58876;51.994;4.472;2024-03-25T05:46:57;6.21;;;5.36;;
71174;SDS011;58876;51.994;4.472;2024-03-25T05:49:22;6.85;;;5.95;;
71174;SDS011;58876;51.994;4.472;2024-03-25T05:51:48;6.39;;;5.68;;
71174;SDS011;58876;51.994;4.472;2024-03-25T05:54:13;6.31;;;5.61;;
71174;SDS011;58876;51.994;4.472;2024-03-25T05:56:39;6.16;;;5.49;;
71174;SDS011;58876;51.994;4.472;2024-03-25T05:59:04;5.66;;;5.19;;
71174;SDS011;58876;51.994;4.472;2024-03-25T06:01:30;5.64;;;5.14;;
71174;SDS011;58876;51.994;4.472;2024-03-25T06:03:55;6.16;;;5.55;;
71174;SDS011;58876;51.994;4.472;2024-03-25T06:06:20;6.26;;;5.58;;
71174;SDS011;58876;51.994;4.472;2024-03-25T06:08:47;6.21;;;5.61;;
71174;SDS011;58876;51.994;4.472;2024-03-25T06:11:13;6.34;;;5.69;;
71174;SDS011;58876;51.994;4.472;2024-03-25T06:13:39;6.67;;;6.03;;
71174;SDS011;58876;51.994;4.472;2024-03-25T06:16:04;7.06;;;6.32;;
71174;SDS011;58876;51.994;4.472;2024-03-25T06:18:30;6.57;;;5.76;;
71174;SDS011;58876;51.994;4.472;2024-03-25T06:20:55;6.82;;;5.93;;
71174;SDS011;58876;51.994;4.472;2024-03-25T06:23:24;6.48;;;5.73;;
71174;SDS011;58876;51.994;4.472;2024-03-25T06:25:54;6.82;;;6.00;;
71174;SDS011;58876;51.994;4.472;2024-03-25T06:28:21;7.37;;;6.38;;
71174;SDS011;58876;51.994;4.472;2024-03-25T06:30:47;6.89;;;5.97;;
71174;SDS011;58876;51.994;4.472;2024-03-25T06:33:33;6.90;;;6.00;;
71174;SDS011;58876;51.994;4.472;2024-03-25T06:36:31;7.34;;;6.26;;
71174;SDS011;58876;51.994;4.472;2024-03-25T06:38:57;8.51;;;7.25;;
71174;SDS011;58876;51.994;4.472;2024-03-25T06:41:22;7.69;;;6.61;;
71174;SDS011;58876;51.994;4.472;2024-03-25T06:43:48;7.56;;;6.69;;
71174;SDS011;58876;51.994;4.472;2024-03-25T06:46:14;7.61;;;6.88;;
71174;SDS011;58876;51.994;4.472;2024-03-25T06:48:39;8.57;;;7.46;;
71174;SDS011;58876;51.994;4.472;2024-03-25T06:51:04;8.34;;;7.55;;
71174;SDS011;58876;51.994;4.472;2024-03-25T06:53:30;8.16;;;7.31;;
71174;SDS011;58876;51.994;4.472;2024-03-25T06:55:57;7.91;;;7.07;;
71174;SDS011;58876;51.994;4.472;2024-03-25T06:58:24;7.63;;;6.89;;
71174;SDS011;58876;51.994;4.472;2024-03-25T07:00:51;8.18;;;7.24;;
71174;SDS011;58876;51.994;4.472;2024-03-25T07:03:18;8.00;;;7.19;;
71174;SDS011;58876;51.994;4.472;2024-03-25T07:05:48;7.79;;;7.12;;
71174;SDS011;58876;51.994;4.472;2024-03-25T07:08:14;7.63;;;7.21;;
71174;SDS011;58876;51.994;4.472;2024-03-25T07:10:44;7.66;;;7.26;;
71174;SDS011;58876;51.994;4.472;2024-03-25T07:13:10;7.57;;;7.17;;
71174;SDS011;58876;51.994;4.472;2024-03-25T07:15:36;7.38;;;6.75;;
71174;SDS011;58876;51.994;4.472;2024-03-25T07:18:02;7.41;;;6.72;;
71174;SDS011;58876;51.994;4.472;2024-03-25T07:20:27;7.24;;;6.58;;
71174;SDS011;58876;51.994;4.472;2024-03-25T07:22:53;7.50;;;6.75;;
71174;SDS011;58876;51.994;4.472;2024-03-25T07:25:22;8.16;;;7.43;;
71174;SDS011;58876;51.994;4.472;2024-03-25T07:27:48;7.55;;;6.97;;
71174;SDS011;58876;51.994;4.472;2024-03-25T07:30:14;7.68;;;7.12;;
71174;SDS011;58876;51.994;4.472;2024-03-25T07:32:40;7.80;;;7.36;;
71174;SDS011;58876;51.994;4.472;2024-03-25T07:35:05;7.73;;;7.31;;
71174;SDS011;58876;51.994;4.472;2024-03-25T07:37:33;8.23;;;7.91;;
71174;SDS011;58876;51.994;4.472;2024-03-25T07:39:58;8.60;;;8.38;;
71174;SDS011;58876;51.994;4.472;2024-03-25T07:42:24;8.37;;;8.22;;
71174;SDS011;58876;51.994;4.472;2024-03-25T07:44:49;9.04;;;8.98;;
71174;SDS011;58876;51.994;4.472;2024-03-25T07:47:15;9.16;;;9.16;;
71174;SDS011;58876;51.994;4.472;2024-03-25T07:49:40;9.50;;;9.50;;
71174;SDS011;58876;51.994;4.472;2024-03-25T07:52:06;10.38;;;10.35;;
71174;SDS011;58876;51.994;4.472;2024-03-25T07:54:32;10.68;;;10.67;;
71174;SDS011;58876;51.994;4.472;2024-03-25T07:56:57;11.00;;;10.96;;
71174;SDS011;58876;51.994;4.472;2024-03-25T07:59:23;10.98;;;10.97;;
71174;SDS011;58876;51.994;4.472;2024-03-25T08:01:48;11.55;;;11.54;;
71174;SDS011;58876;51.994;4.472;2024-03-25T08:04:14;12.15;;;12.15;;
71174;SDS011;58876;51.994;4.472;2024-03-25T08:06:39;12.37;;;12.37;;
71174;SDS011;58876;51.994;4.472;2024-03-25T08:09:05;12.41;;;12.41;;
71174;SDS011;58876;51.994;4.472;2024-03-25T08:11:30;12.20;;;12.20;;
71174;SDS011;58876;51.994;4.472;2024-03-25T08:13:57;12.16;;;12.16;;
71174;SDS011;58876;51.994;4.472;2024-03-25T08:16:22;12.52;;;12.52;;
71174;SDS011;58876;51.994;4.472;2024-03-25T08:18:47;11.80;;;11.80;;
71174;SDS011;58876;51.994;4.472;2024-03-25T08:21:13;11.15;;;11.15;;
71174;SDS011;58876;51.994;4.472;2024-03-25T08:23:38;10.70;;;10.70;;
71174;SDS011;58876;51.994;4.472;2024-03-25T08:26:05;11.01;;;11.01;;
71174;SDS011;58876;51.994;4.472;2024-03-25T08:28:30;10.69;;;10.69;;
71174;SDS011;58876;51.994;4.472;2024-03-25T08:30:56;10.39;;;10.39;;
71174;SDS011;58876;51.994;4.472;2024-03-25T08:33:23;10.35;;;10.35;;
71174;SDS011;58876;51.994;4.472;2024-03-25T08:35:48;10.42;;;10.42;;
71174;SDS011;58876;51.994;4.472;2024-03-25T08:38:13;10.85;;;10.85;;
71174;SDS011;58876;51.994;4.472;2024-03-25T08:40:39;10.67;;;10.67;;
71174;SDS011;58876;51.994;4.472;2024-03-25T08:43:05;10.51;;;10.51;;
71174;SDS011;58876;51.994;4.472;2024-03-25T08:45:31;11.00;;;11.00;;
71174;SDS011;58876;51.994;4.472;2024-03-25T08:47:57;11.09;;;11.09;;
71174;SDS011;58876;51.994;4.472;2024-03-25T08:50:22;11.45;;;11.45;;
71174;SDS011;58876;51.994;4.472;2024-03-25T08:52:48;11.32;;;11.32;;
71174;SDS011;58876;51.994;4.472;2024-03-25T08:55:14;11.10;;;11.04;;
71174;SDS011;58876;51.994;4.472;2024-03-25T08:57:40;11.22;;;11.22;;
71174;SDS011;58876;51.994;4.472;2024-03-25T09:00:05;10.82;;;10.82;;
71174;SDS011;58876;51.994;4.472;2024-03-25T09:02:35;11.06;;;11.05;;
71174;SDS011;58876;51.994;4.472;2024-03-25T09:05:04;11.70;;;11.69;;
71174;SDS011;58876;51.994;4.472;2024-03-25T09:07:30;12.06;;;12.05;;
71174;SDS011;58876;51.994;4.472;2024-03-25T09:09:56;12.22;;;12.21;;
71174;SDS011;58876;51.994;4.472;2024-03-25T09:12:40;12.66;;;12.66;;
71174;SDS011;58876;51.994;4.472;2024-03-25T09:15:06;12.62;;;12.62;;
71174;SDS011;58876;51.994;4.472;2024-03-25T09:17:32;12.78;;;12.78;;
71174;SDS011;58876;51.994;4.472;2024-03-25T09:19:57;13.93;;;13.93;;
71174;SDS011;58876;51.994;4.472;2024-03-25T09:22:23;14.24;;;14.24;;
71174;SDS011;58876;51.994;4.472;2024-03-25T09:24:48;15.78;;;15.78;;
71174;SDS011;58876;51.994;4.472;2024-03-25T09:27:14;18.07;;;18.01;;
71174;SDS011;58876;51.994;4.472;2024-03-25T09:29:41;18.81;;;18.78;;
71174;SDS011;58876;51.994;4.472;2024-03-25T09:32:07;19.20;;;19.18;;
71174;SDS011;58876;51.994;4.472;2024-03-25T09:34:32;19.00;;;18.99;;
71174;SDS011;58876;51.994;4.472;2024-03-25T09:36:58;18.51;;;18.40;;
71174;SDS011;58876;51.994;4.472;2024-03-25T09:39:23;17.75;;;17.75;;
71174;SDS011;58876;51.994;4.472;2024-03-25T09:41:49;17.35;;;17.31;;
71174;SDS011;58876;51.994;4.472;2024-03-25T09:44:21;18.61;;;18.50;;
71174;SDS011;58876;51.994;4.472;2024-03-25T09:46:50;17.64;;;17.63;;
71174;SDS011;58876;51.994;4.472;2024-03-25T09:49:16;16.79;;;16.75;;
71174;SDS011;58876;51.994;4.472;2024-03-25T09:51:43;17.47;;;17.44;;
71174;SDS011;58876;51.994;4.472;2024-03-25T09:54:08;17.09;;;17.09;;
71174;SDS011;58876;51.994;4.472;2024-03-25T09:56:35;16.13;;;16.13;;
71174;SDS011;58876;51.994;4.472;2024-03-25T09:59:03;15.03;;;14.97;;
71174;SDS011;58876;51.994;4.472;2024-03-25T10:01:29;15.05;;;15.00;;
71174;SDS011;58876;51.994;4.472;2024-03-25T10:03:55;15.24;;;15.09;;
71174;SDS011;58876;51.994;4.472;2024-03-25T10:06:21;15.21;;;15.16;;
71174;SDS011;58876;51.994;4.472;2024-03-25T10:08:46;14.67;;;14.63;;
71174;SDS011;58876;51.994;4.472;2024-03-25T10:11:11;13.83;;;13.78;;
71174;SDS011;58876;51.994;4.472;2024-03-25T10:13:40;14.59;;;14.54;;
71174;SDS011;58876;51.994;4.472;2024-03-25T10:16:06;14.62;;;14.62;;
71174;SDS011;58876;51.994;4.472;2024-03-25T10:18:32;15.03;;;15.03;;
71174;SDS011;58876;51.994;4.472;2024-03-25T10:20:58;14.46;;;14.46;;
71174;SDS011;58876;51.994;4.472;2024-03-25T10:23:24;14.21;;;14.21;;
71174;SDS011;58876;51.994;4.472;2024-03-25T10:25:53;13.48;;;13.48;;
71174;SDS011;58876;51.994;4.472;2024-03-25T10:28:19;12.39;;;12.39;;
71174;SDS011;58876;51.994;4.472;2024-03-25T10:30:45;12.40;;;12.39;;
71174;SDS011;58876;51.994;4.472;2024-03-25T10:33:11;13.12;;;13.11;;
71174;SDS011;58876;51.994;4.472;2024-03-25T10:35:40;14.14;;;14.14;;
71174;SDS011;58876;51.994;4.472;2024-03-25T10:38:10;14.52;;;14.52;;
71174;SDS011;58876;51.994;4.472;2024-03-25T10:40:36;12.87;;;12.87;;
71174;SDS011;58876;51.994;4.472;2024-03-25T10:43:04;12.35;;;12.35;;
71174;SDS011;58876;51.994;4.472;2024-03-25T10:45:37;13.05;;;12.97;;
71174;SDS011;58876;51.994;4.472;2024-03-25T10:50:33;16.35;;;16.35;;
71174;SDS011;58876;51.994;4.472;2024-03-25T10:53:00;15.18;;;15.18;;
71174;SDS011;58876;51.994;4.472;2024-03-25T10:55:29;15.28;;;15.27;;
71174;SDS011;58876;51.994;4.472;2024-03-25T10:57:56;14.12;;;14.07;;
71174;SDS011;58876;51.994;4.472;2024-03-25T11:00:22;11.19;;;11.08;;
71174;SDS011;58876;51.994;4.472;2024-03-25T11:02:48;10.62;;;10.60;;
71174;SDS011;58876;51.994;4.472;2024-03-25T11:05:16;13.20;;;13.12;;
71174;SDS011;58876;51.994;4.472;2024-03-25T11:07:42;13.40;;;13.37;;
71174;SDS011;58876;51.994;4.472;2024-03-25T11:10:08;11.85;;;11.80;;
71174;SDS011;58876;51.994;4.472;2024-03-25T11:12:38;11.37;;;11.35;;
71174;SDS011;58876;51.994;4.472;2024-03-25T11:15:07;10.80;;;10.71;;
71174;SDS011;58876;51.994;4.472;2024-03-25T11:17:33;10.52;;;10.49;;
71174;SDS011;58876;51.994;4.472;2024-03-25T11:20:09;10.53;;;10.52;;
71174;SDS011;58876;51.994;4.472;2024-03-25T11:22:52;10.56;;;10.50;;
71174;SDS011;58876;51.994;4.472;2024-03-25T11:25:19;10.51;;;10.38;;
71174;SDS011;58876;51.994;4.472;2024-03-25T11:27:46;10.64;;;10.56;;
71174;SDS011;58876;51.994;4.472;2024-03-25T11:30:13;10.50;;;10.34;;
71174;SDS011;58876;51.994;4.472;2024-03-25T11:32:43;9.73;;;9.60;;
71174;SDS011;58876;51.994;4.472;2024-03-25T11:35:16;8.01;;;7.93;;
71174;SDS011;58876;51.994;4.472;2024-03-25T11:37:42;8.63;;;8.55;;
71174;SDS011;58876;51.994;4.472;2024-03-25T11:40:09;10.82;;;10.69;;
71174;SDS011;58876;51.994;4.472;2024-03-25T11:42:38;12.88;;;12.73;;
71174;SDS011;58876;51.994;4.472;2024-03-25T11:45:05;12.16;;;12.06;;
71174;SDS011;58876;51.994;4.472;2024-03-25T11:47:40;11.47;;;11.36;;
71174;SDS011;58876;51.994;4.472;2024-03-25T11:50:09;9.60;;;9.52;;
71174;SDS011;58876;51.994;4.472;2024-03-25T11:52:36;8.74;;;8.63;;
71174;SDS011;58876;51.994;4.472;2024-03-25T11:55:03;8.06;;;8.02;;
71174;SDS011;58876;51.994;4.472;2024-03-25T11:57:29;7.70;;;7.65;;
71174;SDS011;58876;51.994;4.472;2024-03-25T11:59:54;9.02;;;8.91;;
71174;SDS011;58876;51.994;4.472;2024-03-25T12:02:19;11.78;;;11.68;;
71174;SDS011;58876;51.994;4.472;2024-03-25T12:04:45;11.42;;;11.34;;
71174;SDS011;58876;51.994;4.472;2024-03-25T12:07:11;10.16;;;10.03;;
71174;SDS011;58876;51.994;4.472;2024-03-25T12:09:38;8.33;;;8.24;;
71174;SDS011;58876;51.994;4.472;2024-03-25T12:12:22;8.02;;;7.94;;
71174;SDS011;58876;51.994;4.472;2024-03-25T12:14:47;7.44;;;7.40;;
71174;SDS011;58876;51.994;4.472;2024-03-25T12:17:14;8.09;;;8.03;;
71174;SDS011;58876;51.994;4.472;2024-03-25T12:19:40;7.95;;;7.90;;
71174;SDS011;58876;51.994;4.472;2024-03-25T12:22:06;7.61;;;7.55;;
71174;SDS011;58876;51.994;4.472;2024-03-25T12:24:33;7.60;;;7.55;;
71174;SDS011;58876;51.994;4.472;2024-03-25T12:26:59;7.62;;;7.62;;
71174;SDS011;58876;51.994;4.472;2024-03-25T12:29:25;7.08;;;7.08;;
71174;SDS011;58876;51.994;4.472;2024-03-25T12:31:54;7.36;;;7.29;;
71174;SDS011;58876;51.994;4.472;2024-03-25T12:34:20;7.49;;;7.42;;
71174;SDS011;58876;51.994;4.472;2024-03-25T12:36:47;7.63;;;7.56;;
71174;SDS011;58876;51.994;4.472;2024-03-25T12:39:19;7.51;;;7.50;;
71174;SDS011;58876;51.994;4.472;2024-03-25T12:41:44;7.56;;;7.53;;
71174;SDS011;58876;51.994;4.472;2024-03-25T12:44:11;7.76;;;7.72;;
71174;SDS011;58876;51.994;4.472;2024-03-25T12:46:38;7.79;;;7.73;;
71174;SDS011;58876;51.994;4.472;2024-03-25T12:49:04;7.88;;;7.84;;
71174;SDS011;58876;51.994;4.472;2024-03-25T12:51:31;7.33;;;7.32;;
71174;SDS011;58876;51.994;4.472;2024-03-25T12:53:57;7.50;;;7.50;;
71174;SDS011;58876;51.994;4.472;2024-03-25T12:56:23;7.44;;;7.42;;
71174;SDS011;58876;51.994;4.472;2024-03-25T12:58:49;6.88;;;6.87;;
71174;SDS011;58876;51.994;4.472;2024-03-25T13:01:15;7.07;;;7.07;;
71174;SDS011;58876;51.994;4.472;2024-03-25T13:03:41;7.07;;;7.07;;
71174;SDS011;58876;51.994;4.472;2024-03-25T13:06:07;6.35;;;6.35;;
71174;SDS011;58876;51.994;4.472;2024-03-25T13:08:33;5.80;;;5.80;;
71174;SDS011;58876;51.994;4.472;2024-03-25T13:10:59;5.90;;;5.90;;
71174;SDS011;58876;51.994;4.472;2024-03-25T13:13:25;5.71;;;5.71;;
71174;SDS011;58876;51.994;4.472;2024-03-25T13:15:50;6.03;;;6.03;;
71174;SDS011;58876;51.994;4.472;2024-03-25T13:18:16;5.83;;;5.83;;
71174;SDS011;58876;51.994;4.472;2024-03-25T13:20:41;5.50;;;5.50;;
71174;SDS011;58876;51.994;4.472;2024-03-25T13:23:08;6.16;;;6.16;;
71174;SDS011;58876;51.994;4.472;2024-03-25T13:25:34;5.96;;;5.96;;
71174;SDS011;58876;51.994;4.472;2024-03-25T13:27:59;6.11;;;6.11;;
71174;SDS011;58876;51.994;4.472;2024-03-25T13:30:25;5.98;;;5.98;;
71174;SDS011;58876;51.994;4.472;2024-03-25T13:32:52;5.90;;;5.90;;
71174;SDS011;58876;51.994;4.472;2024-03-25T13:35:17;5.91;;;5.91;;
71174;SDS011;58876;51.994;4.472;2024-03-25T13:37:43;5.80;;;5.80;;
71174;SDS011;58876;51.994;4.472;2024-03-25T13:40:09;5.71;;;5.71;;
71174;SDS011;58876;51.994;4.472;2024-03-25T13:42:36;6.34;;;6.34;;
71174;SDS011;58876;51.994;4.472;2024-03-25T13:45:05;6.45;;;6.45;;
71174;SDS011;58876;51.994;4.472;2024-03-25T13:47:31;6.30;;;6.30;;
71174;SDS011;58876;51.994;4.472;2024-03-25T13:50:00;5.96;;;5.96;;
71174;SDS011;58876;51.994;4.472;2024-03-25T13:52:26;5.68;;;5.68;;
71174;SDS011;58876;51.994;4.472;2024-03-25T13:54:52;5.61;;;5.61;;
71174;SDS011;58876;51.994;4.472;2024-03-25T13:57:17;5.59;;;5.59;;
71174;SDS011;58876;51.994;4.472;2024-03-25T13:59:43;5.37;;;5.37;;
71174;SDS011;58876;51.994;4.472;2024-03-25T14:02:08;5.44;;;5.44;;
71174;SDS011;58876;51.994;4.472;2024-03-25T14:04:34;5.24;;;5.24;;
71174;SDS011;58876;51.994;4.472;2024-03-25T14:06:59;5.35;;;5.35;;
71174;SDS011;58876;51.994;4.472;2024-03-25T14:09:25;5.21;;;5.21;;
71174;SDS011;58876;51.994;4.472;2024-03-25T14:11:51;4.97;;;4.97;;
71174;SDS011;58876;51.994;4.472;2024-03-25T14:14:16;5.22;;;5.22;;
71174;SDS011;58876;51.994;4.472;2024-03-25T14:16:42;5.27;;;5.27;;
71174;SDS011;58876;51.994;4.472;2024-03-25T14:19:07;5.21;;;5.21;;
71174;SDS011;58876;51.994;4.472;2024-03-25T14:21:33;4.97;;;4.97;;
71174;SDS011;58876;51.994;4.472;2024-03-25T14:23:58;4.97;;;4.97;;
71174;SDS011;58876;51.994;4.472;2024-03-25T14:26:23;5.02;;;5.02;;
71174;SDS011;58876;51.994;4.472;2024-03-25T14:28:49;4.96;;;4.96;;
71174;SDS011;58876;51.994;4.472;2024-03-25T14:31:14;5.50;;;5.50;;
71174;SDS011;58876;51.994;4.472;2024-03-25T14:33:40;5.36;;;5.36;;
71174;SDS011;58876;51.994;4.472;2024-03-25T14:36:06;5.18;;;5.18;;
71174;SDS011;58876;51.994;4.472;2024-03-25T14:38:31;5.12;;;5.12;;
71174;SDS011;58876;51.994;4.472;2024-03-25T14:40:57;4.89;;;4.89;;
71174;SDS011;58876;51.994;4.472;2024-03-25T14:43:23;4.88;;;4.88;;
71174;SDS011;58876;51.994;4.472;2024-03-25T14:45:48;4.67;;;4.67;;